sensor_id;sensor_type;location;lat;lon;timestamp;P1;durP1;ratioP1;P2;durP2;ratioP2
13706;SDS011;6925;47.816;13.072;2023-09-08T00:00:49;6.20;;;3.17;;
13706;SDS011;6925;47.816;13.072;2023-09-08T00:05:43;6.35;;;3.70;;
13706;SDS011;6925;47.816;13.072;2023-09-08T00:10:37;7.28;;;4.07;;
13706;SDS011;6925;47.816;13.072;2023-09-08T00:15:34;6.13;;;3.47;;
13706;SDS011;6925;47.816;13.072;2023-09-08T00:18:01;7.10;;;4.07;;
13706;SDS011;6925;47.816;13.072;2023-09-08T00:20:28;7.80;;;3.65;;
13706;SDS011;6925;47.816;13.072;2023-09-08T00:22:55;7.72;;;3.63;;
13706;SDS011;6925;47.816;13.072;2023-09-08T00:27:49;7.43;;;3.80;;
13706;SDS011;6925;47.816;13.072;2023-09-08T00:32:44;8.85;;;3.60;;
13706;SDS011;6925;47.816;13.072;2023-09-08T00:35:11;7.53;;;3.55;;
13706;SDS011;6925;47.816;13.072;2023-09-08T00:37:39;8.02;;;3.83;;
13706;SDS011;6925;47.816;13.072;2023-09-08T00:40:06;7.30;;;3.40;;
13706;SDS011;6925;47.816;13.072;2023-09-08T00:42:34;6.72;;;3.70;;
13706;SDS011;6925;47.816;13.072;2023-09-08T00:45:02;7.32;;;3.95;;
13706;SDS011;6925;47.816;13.072;2023-09-08T00:47:29;8.13;;;3.58;;
13706;SDS011;6925;47.816;13.072;2023-09-08T00:52:24;5.75;;;3.45;;
13706;SDS011;6925;47.816;13.072;2023-09-08T00:54:56;5.43;;;3.40;;
13706;SDS011;6925;47.816;13.072;2023-09-08T00:57:23;9.02;;;4.22;;
13706;SDS011;6925;47.816;13.072;2023-09-08T01:02:17;6.28;;;3.78;;
13706;SDS011;6925;47.816;13.072;2023-09-08T01:04:44;5.85;;;3.75;;
13706;SDS011;6925;47.816;13.072;2023-09-08T01:07:14;7.10;;;3.83;;
13706;SDS011;6925;47.816;13.072;2023-09-08T01:09:42;7.15;;;4.43;;
13706;SDS011;6925;47.816;13.072;2023-09-08T01:12:09;6.43;;;3.92;;
13706;SDS011;6925;47.816;13.072;2023-09-08T01:14:37;7.65;;;3.72;;
13706;SDS011;6925;47.816;13.072;2023-09-08T01:19:31;7.22;;;4.18;;
13706;SDS011;6925;47.816;13.072;2023-09-08T01:22:20;6.97;;;4.20;;
13706;SDS011;6925;47.816;13.072;2023-09-08T01:27:47;7.60;;;3.78;;
13706;SDS011;6925;47.816;13.072;2023-09-08T01:30:16;6.70;;;3.40;;
13706;SDS011;6925;47.816;13.072;2023-09-08T01:32:44;6.28;;;4.07;;
13706;SDS011;6925;47.816;13.072;2023-09-08T01:35:12;5.90;;;3.38;;
13706;SDS011;6925;47.816;13.072;2023-09-08T01:37:40;6.55;;;3.70;;
13706;SDS011;6925;47.816;13.072;2023-09-08T01:40:08;8.63;;;3.75;;
13706;SDS011;6925;47.816;13.072;2023-09-08T01:42:38;6.15;;;3.20;;
13706;SDS011;6925;47.816;13.072;2023-09-08T01:45:05;5.85;;;3.60;;
13706;SDS011;6925;47.816;13.072;2023-09-08T01:47:33;6.28;;;3.45;;
13706;SDS011;6925;47.816;13.072;2023-09-08T01:50:01;8.00;;;3.75;;
13706;SDS011;6925;47.816;13.072;2023-09-08T01:52:28;5.18;;;3.40;;
13706;SDS011;6925;47.816;13.072;2023-09-08T01:57:22;5.90;;;3.13;;
13706;SDS011;6925;47.816;13.072;2023-09-08T02:02:17;5.40;;;3.22;;
13706;SDS011;6925;47.816;13.072;2023-09-08T02:04:44;6.03;;;3.30;;
13706;SDS011;6925;47.816;13.072;2023-09-08T02:07:11;5.53;;;3.55;;
13706;SDS011;6925;47.816;13.072;2023-09-08T02:12:05;5.88;;;3.50;;
13706;SDS011;6925;47.816;13.072;2023-09-08T02:14:33;5.68;;;3.00;;
13706;SDS011;6925;47.816;13.072;2023-09-08T02:17:01;5.97;;;3.60;;
13706;SDS011;6925;47.816;13.072;2023-09-08T02:19:29;5.55;;;3.10;;
13706;SDS011;6925;47.816;13.072;2023-09-08T02:21:56;5.32;;;3.40;;
13706;SDS011;6925;47.816;13.072;2023-09-08T02:24:23;6.38;;;2.97;;
13706;SDS011;6925;47.816;13.072;2023-09-08T02:26:50;6.15;;;3.40;;
13706;SDS011;6925;47.816;13.072;2023-09-08T02:29:17;5.70;;;2.80;;
13706;SDS011;6925;47.816;13.072;2023-09-08T02:31:44;8.88;;;3.05;;
13706;SDS011;6925;47.816;13.072;2023-09-08T02:34:12;6.85;;;3.30;;
13706;SDS011;6925;47.816;13.072;2023-09-08T02:36:39;5.07;;;3.15;;
13706;SDS011;6925;47.816;13.072;2023-09-08T02:39:06;6.15;;;3.03;;
13706;SDS011;6925;47.816;13.072;2023-09-08T02:41:33;6.60;;;3.13;;
13706;SDS011;6925;47.816;13.072;2023-09-08T02:44:01;5.25;;;3.15;;
13706;SDS011;6925;47.816;13.072;2023-09-08T02:46:28;5.57;;;3.22;;
13706;SDS011;6925;47.816;13.072;2023-09-08T02:48:55;6.40;;;3.42;;
13706;SDS011;6925;47.816;13.072;2023-09-08T02:53:51;6.10;;;3.08;;
13706;SDS011;6925;47.816;13.072;2023-09-08T02:56:18;6.45;;;3.20;;
13706;SDS011;6925;47.816;13.072;2023-09-08T02:58:45;4.70;;;2.88;;
13706;SDS011;6925;47.816;13.072;2023-09-08T03:01:12;8.00;;;3.03;;
13706;SDS011;6925;47.816;13.072;2023-09-08T03:03:40;6.03;;;3.13;;
13706;SDS011;6925;47.816;13.072;2023-09-08T03:06:08;5.90;;;3.08;;
13706;SDS011;6925;47.816;13.072;2023-09-08T03:08:36;4.97;;;2.95;;
13706;SDS011;6925;47.816;13.072;2023-09-08T03:11:04;5.25;;;3.15;;
13706;SDS011;6925;47.816;13.072;2023-09-08T03:13:32;5.65;;;3.20;;
13706;SDS011;6925;47.816;13.072;2023-09-08T03:16:03;5.38;;;2.90;;
13706;SDS011;6925;47.816;13.072;2023-09-08T03:18:31;6.38;;;3.28;;
13706;SDS011;6925;47.816;13.072;2023-09-08T03:20:58;7.28;;;3.10;;
13706;SDS011;6925;47.816;13.072;2023-09-08T03:23:28;5.13;;;3.13;;
13706;SDS011;6925;47.816;13.072;2023-09-08T03:25:57;5.68;;;3.22;;
13706;SDS011;6925;47.816;13.072;2023-09-08T03:28:24;6.07;;;3.35;;
13706;SDS011;6925;47.816;13.072;2023-09-08T03:30:51;5.20;;;3.10;;
13706;SDS011;6925;47.816;13.072;2023-09-08T03:33:18;5.18;;;2.75;;
13706;SDS011;6925;47.816;13.072;2023-09-08T03:35:46;9.05;;;3.17;;
13706;SDS011;6925;47.816;13.072;2023-09-08T03:38:13;6.10;;;3.15;;
13706;SDS011;6925;47.816;13.072;2023-09-08T03:40:40;6.65;;;3.42;;
13706;SDS011;6925;47.816;13.072;2023-09-08T03:43:09;4.53;;;3.05;;
13706;SDS011;6925;47.816;13.072;2023-09-08T03:45:36;7.20;;;3.45;;
13706;SDS011;6925;47.816;13.072;2023-09-08T03:48:03;6.63;;;3.08;;
13706;SDS011;6925;47.816;13.072;2023-09-08T03:50:30;5.43;;;3.42;;
13706;SDS011;6925;47.816;13.072;2023-09-08T03:55:24;6.07;;;3.10;;
13706;SDS011;6925;47.816;13.072;2023-09-08T03:57:51;5.97;;;2.92;;
13706;SDS011;6925;47.816;13.072;2023-09-08T04:00:20;5.30;;;3.17;;
13706;SDS011;6925;47.816;13.072;2023-09-08T04:02:47;5.32;;;3.03;;
13706;SDS011;6925;47.816;13.072;2023-09-08T04:05:15;5.15;;;3.15;;
13706;SDS011;6925;47.816;13.072;2023-09-08T04:07:42;6.10;;;3.13;;
13706;SDS011;6925;47.816;13.072;2023-09-08T04:10:10;6.30;;;3.30;;
13706;SDS011;6925;47.816;13.072;2023-09-08T04:12:38;6.25;;;3.35;;
13706;SDS011;6925;47.816;13.072;2023-09-08T04:15:05;6.93;;;3.22;;
13706;SDS011;6925;47.816;13.072;2023-09-08T04:17:35;5.15;;;3.05;;
13706;SDS011;6925;47.816;13.072;2023-09-08T04:20:04;5.30;;;2.88;;
13706;SDS011;6925;47.816;13.072;2023-09-08T04:22:33;5.63;;;3.28;;
13706;SDS011;6925;47.816;13.072;2023-09-08T04:25:00;7.13;;;2.78;;
13706;SDS011;6925;47.816;13.072;2023-09-08T04:27:28;5.40;;;2.72;;
13706;SDS011;6925;47.816;13.072;2023-09-08T04:32:22;5.70;;;3.40;;
13706;SDS011;6925;47.816;13.072;2023-09-08T04:34:56;5.50;;;3.00;;
13706;SDS011;6925;47.816;13.072;2023-09-08T04:37:23;5.05;;;3.05;;
13706;SDS011;6925;47.816;13.072;2023-09-08T04:39:55;5.80;;;3.03;;
13706;SDS011;6925;47.816;13.072;2023-09-08T04:42:22;5.35;;;2.67;;
13706;SDS011;6925;47.816;13.072;2023-09-08T04:44:50;5.40;;;3.00;;
13706;SDS011;6925;47.816;13.072;2023-09-08T04:49:44;4.85;;;2.50;;
13706;SDS011;6925;47.816;13.072;2023-09-08T04:52:13;5.00;;;2.60;;
13706;SDS011;6925;47.816;13.072;2023-09-08T04:54:40;4.95;;;2.65;;
13706;SDS011;6925;47.816;13.072;2023-09-08T04:59:34;6.95;;;2.80;;
13706;SDS011;6925;47.816;13.072;2023-09-08T05:02:04;4.85;;;3.10;;
13706;SDS011;6925;47.816;13.072;2023-09-08T05:04:32;6.65;;;3.40;;
13706;SDS011;6925;47.816;13.072;2023-09-08T05:06:59;6.60;;;2.72;;
13706;SDS011;6925;47.816;13.072;2023-09-08T05:09:27;5.97;;;3.25;;
13706;SDS011;6925;47.816;13.072;2023-09-08T05:11:55;5.35;;;2.80;;
13706;SDS011;6925;47.816;13.072;2023-09-08T05:14:24;6.25;;;3.22;;
13706;SDS011;6925;47.816;13.072;2023-09-08T05:16:51;5.22;;;2.55;;
13706;SDS011;6925;47.816;13.072;2023-09-08T05:19:21;5.25;;;2.88;;
13706;SDS011;6925;47.816;13.072;2023-09-08T05:21:49;5.05;;;2.80;;
13706;SDS011;6925;47.816;13.072;2023-09-08T05:24:17;4.47;;;2.53;;
13706;SDS011;6925;47.816;13.072;2023-09-08T05:26:47;5.47;;;2.65;;
13706;SDS011;6925;47.816;13.072;2023-09-08T05:29:14;6.03;;;2.78;;
13706;SDS011;6925;47.816;13.072;2023-09-08T05:31:41;5.25;;;2.80;;
13706;SDS011;6925;47.816;13.072;2023-09-08T05:36:35;4.93;;;2.60;;
13706;SDS011;6925;47.816;13.072;2023-09-08T05:39:05;4.75;;;2.22;;
13706;SDS011;6925;47.816;13.072;2023-09-08T05:41:32;4.85;;;2.47;;
13706;SDS011;6925;47.816;13.072;2023-09-08T05:44:01;5.38;;;2.40;;
13706;SDS011;6925;47.816;13.072;2023-09-08T05:46:28;5.93;;;2.92;;
13706;SDS011;6925;47.816;13.072;2023-09-08T05:48:56;5.68;;;2.70;;
13706;SDS011;6925;47.816;13.072;2023-09-08T05:51:23;4.20;;;2.35;;
13706;SDS011;6925;47.816;13.072;2023-09-08T05:56:17;5.35;;;2.25;;
13706;SDS011;6925;47.816;13.072;2023-09-08T05:58:45;4.68;;;2.28;;
13706;SDS011;6925;47.816;13.072;2023-09-08T06:01:14;8.00;;;2.85;;
13706;SDS011;6925;47.816;13.072;2023-09-08T06:03:42;5.32;;;2.30;;
13706;SDS011;6925;47.816;13.072;2023-09-08T06:08:36;8.43;;;2.95;;
13706;SDS011;6925;47.816;13.072;2023-09-08T06:11:03;6.78;;;3.00;;
13706;SDS011;6925;47.816;13.072;2023-09-08T06:15:57;5.65;;;2.83;;
13706;SDS011;6925;47.816;13.072;2023-09-08T06:18:27;8.23;;;3.20;;
13706;SDS011;6925;47.816;13.072;2023-09-08T06:20:55;8.35;;;3.35;;
13706;SDS011;6925;47.816;13.072;2023-09-08T06:23:22;6.78;;;3.03;;
13706;SDS011;6925;47.816;13.072;2023-09-08T06:25:50;4.60;;;2.88;;
13706;SDS011;6925;47.816;13.072;2023-09-08T06:28:17;5.43;;;3.03;;
13706;SDS011;6925;47.816;13.072;2023-09-08T06:30:44;5.90;;;2.75;;
13706;SDS011;6925;47.816;13.072;2023-09-08T06:33:11;5.50;;;3.03;;
13706;SDS011;6925;47.816;13.072;2023-09-08T06:35:40;7.30;;;3.00;;
13706;SDS011;6925;47.816;13.072;2023-09-08T06:38:07;13.95;;;3.15;;
13706;SDS011;6925;47.816;13.072;2023-09-08T06:43:00;9.60;;;2.90;;
13706;SDS011;6925;47.816;13.072;2023-09-08T06:45:28;4.53;;;2.67;;
13706;SDS011;6925;47.816;13.072;2023-09-08T06:47:55;5.93;;;3.00;;
13706;SDS011;6925;47.816;13.072;2023-09-08T06:50:22;11.30;;;3.95;;
13706;SDS011;6925;47.816;13.072;2023-09-08T06:52:50;5.90;;;2.58;;
13706;SDS011;6925;47.816;13.072;2023-09-08T06:55:18;6.82;;;3.20;;
13706;SDS011;6925;47.816;13.072;2023-09-08T06:57:45;5.28;;;2.72;;
13706;SDS011;6925;47.816;13.072;2023-09-08T07:02:42;4.97;;;2.50;;
13706;SDS011;6925;47.816;13.072;2023-09-08T07:05:09;5.65;;;2.83;;
13706;SDS011;6925;47.816;13.072;2023-09-08T07:10:05;11.25;;;3.17;;
13706;SDS011;6925;47.816;13.072;2023-09-08T07:12:33;5.70;;;2.47;;
13706;SDS011;6925;47.816;13.072;2023-09-08T07:15:00;5.20;;;2.90;;
13706;SDS011;6925;47.816;13.072;2023-09-08T07:19:54;6.75;;;2.80;;
13706;SDS011;6925;47.816;13.072;2023-09-08T07:24:48;7.05;;;3.08;;
13706;SDS011;6925;47.816;13.072;2023-09-08T07:27:17;6.50;;;3.10;;
13706;SDS011;6925;47.816;13.072;2023-09-08T07:29:45;5.63;;;2.60;;
13706;SDS011;6925;47.816;13.072;2023-09-08T07:32:13;5.07;;;2.85;;
13706;SDS011;6925;47.816;13.072;2023-09-08T07:37:07;5.32;;;2.67;;
13706;SDS011;6925;47.816;13.072;2023-09-08T07:39:34;4.50;;;2.78;;
13706;SDS011;6925;47.816;13.072;2023-09-08T07:42:01;4.90;;;2.88;;
13706;SDS011;6925;47.816;13.072;2023-09-08T07:44:30;5.55;;;2.80;;
13706;SDS011;6925;47.816;13.072;2023-09-08T07:46:57;5.63;;;2.85;;
13706;SDS011;6925;47.816;13.072;2023-09-08T07:51:51;5.43;;;3.05;;
13706;SDS011;6925;47.816;13.072;2023-09-08T07:56:45;5.75;;;3.05;;
13706;SDS011;6925;47.816;13.072;2023-09-08T08:01:40;4.68;;;2.90;;
13706;SDS011;6925;47.816;13.072;2023-09-08T08:04:07;4.20;;;2.72;;
13706;SDS011;6925;47.816;13.072;2023-09-08T08:09:01;7.15;;;2.90;;
13706;SDS011;6925;47.816;13.072;2023-09-08T08:11:28;5.93;;;2.95;;
13706;SDS011;6925;47.816;13.072;2023-09-08T08:16:22;6.00;;;3.03;;
13706;SDS011;6925;47.816;13.072;2023-09-08T08:21:18;5.82;;;2.97;;
13706;SDS011;6925;47.816;13.072;2023-09-08T08:23:47;5.40;;;2.90;;
13706;SDS011;6925;47.816;13.072;2023-09-08T08:26:15;6.00;;;3.28;;
13706;SDS011;6925;47.816;13.072;2023-09-08T08:28:43;7.10;;;3.03;;
13706;SDS011;6925;47.816;13.072;2023-09-08T08:33:36;5.35;;;2.85;;
13706;SDS011;6925;47.816;13.072;2023-09-08T08:38:32;5.85;;;3.25;;
13706;SDS011;6925;47.816;13.072;2023-09-08T08:43:30;5.50;;;2.90;;
13706;SDS011;6925;47.816;13.072;2023-09-08T08:45:58;5.22;;;2.95;;
13706;SDS011;6925;47.816;13.072;2023-09-08T08:48:26;6.28;;;2.80;;
13706;SDS011;6925;47.816;13.072;2023-09-08T08:50:55;5.72;;;3.13;;
13706;SDS011;6925;47.816;13.072;2023-09-08T08:53:25;5.93;;;2.92;;
13706;SDS011;6925;47.816;13.072;2023-09-08T08:55:53;5.25;;;2.70;;
13706;SDS011;6925;47.816;13.072;2023-09-08T08:58:24;5.40;;;2.40;;
13706;SDS011;6925;47.816;13.072;2023-09-08T09:00:52;6.47;;;2.92;;
13706;SDS011;6925;47.816;13.072;2023-09-08T09:03:22;5.25;;;2.85;;
13706;SDS011;6925;47.816;13.072;2023-09-08T09:05:52;5.65;;;2.95;;
13706;SDS011;6925;47.816;13.072;2023-09-08T09:08:19;4.78;;;2.90;;
13706;SDS011;6925;47.816;13.072;2023-09-08T09:10:50;4.75;;;2.90;;
13706;SDS011;6925;47.816;13.072;2023-09-08T09:13:18;4.45;;;2.50;;
13706;SDS011;6925;47.816;13.072;2023-09-08T09:15:45;6.25;;;2.90;;
13706;SDS011;6925;47.816;13.072;2023-09-08T09:18:14;5.60;;;2.80;;
13706;SDS011;6925;47.816;13.072;2023-09-08T09:20:41;6.35;;;2.97;;
13706;SDS011;6925;47.816;13.072;2023-09-08T09:23:26;3.88;;;2.38;;
13706;SDS011;6925;47.816;13.072;2023-09-08T09:25:56;5.35;;;3.13;;
13706;SDS011;6925;47.816;13.072;2023-09-08T09:28:24;6.03;;;2.92;;
13706;SDS011;6925;47.816;13.072;2023-09-08T09:30:51;6.30;;;2.70;;
13706;SDS011;6925;47.816;13.072;2023-09-08T09:33:20;4.15;;;2.45;;
13706;SDS011;6925;47.816;13.072;2023-09-08T09:35:48;4.93;;;2.95;;
13706;SDS011;6925;47.816;13.072;2023-09-08T09:38:16;5.63;;;2.75;;
13706;SDS011;6925;47.816;13.072;2023-09-08T09:40:44;4.95;;;2.88;;
13706;SDS011;6925;47.816;13.072;2023-09-08T09:43:13;3.88;;;2.53;;
13706;SDS011;6925;47.816;13.072;2023-09-08T09:45:42;5.47;;;3.10;;
13706;SDS011;6925;47.816;13.072;2023-09-08T09:48:10;5.10;;;2.53;;
13706;SDS011;6925;47.816;13.072;2023-09-08T09:50:38;6.53;;;3.00;;
13706;SDS011;6925;47.816;13.072;2023-09-08T09:53:09;5.28;;;2.90;;
13706;SDS011;6925;47.816;13.072;2023-09-08T09:55:38;3.88;;;2.40;;
13706;SDS011;6925;47.816;13.072;2023-09-08T09:58:06;5.25;;;2.72;;
13706;SDS011;6925;47.816;13.072;2023-09-08T10:00:37;6.00;;;2.90;;
13706;SDS011;6925;47.816;13.072;2023-09-08T10:03:06;6.30;;;2.90;;
13706;SDS011;6925;47.816;13.072;2023-09-08T10:05:33;4.55;;;2.90;;
13706;SDS011;6925;47.816;13.072;2023-09-08T10:08:00;4.93;;;2.70;;
13706;SDS011;6925;47.816;13.072;2023-09-08T10:10:28;8.65;;;3.22;;
13706;SDS011;6925;47.816;13.072;2023-09-08T10:13:01;5.78;;;3.22;;
13706;SDS011;6925;47.816;13.072;2023-09-08T10:15:31;5.68;;;2.80;;
13706;SDS011;6925;47.816;13.072;2023-09-08T10:17:59;4.97;;;2.95;;
13706;SDS011;6925;47.816;13.072;2023-09-08T10:20:31;5.38;;;3.05;;
13706;SDS011;6925;47.816;13.072;2023-09-08T10:23:01;5.25;;;2.58;;
13706;SDS011;6925;47.816;13.072;2023-09-08T10:25:35;4.97;;;2.88;;
13706;SDS011;6925;47.816;13.072;2023-09-08T10:28:08;4.57;;;2.58;;
13706;SDS011;6925;47.816;13.072;2023-09-08T10:30:36;5.45;;;3.00;;
13706;SDS011;6925;47.816;13.072;2023-09-08T10:33:05;6.55;;;2.75;;
13706;SDS011;6925;47.816;13.072;2023-09-08T10:35:33;3.90;;;2.50;;
13706;SDS011;6925;47.816;13.072;2023-09-08T10:38:20;6.32;;;2.90;;
13706;SDS011;6925;47.816;13.072;2023-09-08T10:40:48;8.38;;;3.20;;
13706;SDS011;6925;47.816;13.072;2023-09-08T10:43:15;4.35;;;2.90;;
13706;SDS011;6925;47.816;13.072;2023-09-08T10:45:44;8.38;;;3.20;;
13706;SDS011;6925;47.816;13.072;2023-09-08T10:48:13;8.95;;;2.92;;
13706;SDS011;6925;47.816;13.072;2023-09-08T10:50:41;5.20;;;2.78;;
13706;SDS011;6925;47.816;13.072;2023-09-08T10:53:18;5.07;;;2.90;;
13706;SDS011;6925;47.816;13.072;2023-09-08T10:55:46;5.05;;;2.80;;
13706;SDS011;6925;47.816;13.072;2023-09-08T10:58:17;5.70;;;2.90;;
13706;SDS011;6925;47.816;13.072;2023-09-08T11:00:46;4.30;;;2.83;;
13706;SDS011;6925;47.816;13.072;2023-09-08T11:03:15;6.93;;;2.88;;
13706;SDS011;6925;47.816;13.072;2023-09-08T11:05:54;4.60;;;2.85;;
13706;SDS011;6925;47.816;13.072;2023-09-08T11:08:22;4.75;;;3.00;;
13706;SDS011;6925;47.816;13.072;2023-09-08T11:10:49;6.97;;;2.83;;
13706;SDS011;6925;47.816;13.072;2023-09-08T11:13:17;4.78;;;3.00;;
13706;SDS011;6925;47.816;13.072;2023-09-08T11:15:44;4.40;;;2.80;;
13706;SDS011;6925;47.816;13.072;2023-09-08T11:18:11;4.72;;;3.13;;
13706;SDS011;6925;47.816;13.072;2023-09-08T11:20:40;4.50;;;2.85;;
13706;SDS011;6925;47.816;13.072;2023-09-08T11:23:08;5.18;;;2.90;;
13706;SDS011;6925;47.816;13.072;2023-09-08T11:25:35;4.20;;;2.80;;
13706;SDS011;6925;47.816;13.072;2023-09-08T11:28:02;5.25;;;2.65;;
13706;SDS011;6925;47.816;13.072;2023-09-08T11:30:30;7.65;;;3.03;;
13706;SDS011;6925;47.816;13.072;2023-09-08T11:32:57;7.75;;;2.85;;
13706;SDS011;6925;47.816;13.072;2023-09-08T11:35:27;4.93;;;2.78;;
13706;SDS011;6925;47.816;13.072;2023-09-08T11:37:59;6.93;;;3.72;;
13706;SDS011;6925;47.816;13.072;2023-09-08T11:40:30;6.82;;;3.05;;
13706;SDS011;6925;47.816;13.072;2023-09-08T11:42:57;5.05;;;3.17;;
13706;SDS011;6925;47.816;13.072;2023-09-08T11:45:25;6.25;;;3.28;;
13706;SDS011;6925;47.816;13.072;2023-09-08T11:47:53;5.80;;;3.50;;
13706;SDS011;6925;47.816;13.072;2023-09-08T11:50:21;5.13;;;3.13;;
13706;SDS011;6925;47.816;13.072;2023-09-08T11:52:49;5.65;;;3.33;;
13706;SDS011;6925;47.816;13.072;2023-09-08T11:55:20;5.55;;;3.17;;
13706;SDS011;6925;47.816;13.072;2023-09-08T11:57:50;4.63;;;2.97;;
13706;SDS011;6925;47.816;13.072;2023-09-08T12:00:22;5.38;;;3.10;;
13706;SDS011;6925;47.816;13.072;2023-09-08T12:02:51;5.07;;;3.33;;
13706;SDS011;6925;47.816;13.072;2023-09-08T12:05:21;4.60;;;3.13;;
13706;SDS011;6925;47.816;13.072;2023-09-08T12:07:49;5.13;;;3.33;;
13706;SDS011;6925;47.816;13.072;2023-09-08T12:10:17;4.32;;;3.03;;
13706;SDS011;6925;47.816;13.072;2023-09-08T12:12:47;5.60;;;3.08;;
13706;SDS011;6925;47.816;13.072;2023-09-08T12:15:29;5.40;;;3.70;;
13706;SDS011;6925;47.816;13.072;2023-09-08T12:17:57;5.30;;;3.05;;
13706;SDS011;6925;47.816;13.072;2023-09-08T12:20:25;6.63;;;3.50;;
13706;SDS011;6925;47.816;13.072;2023-09-08T12:22:52;6.70;;;4.18;;
13706;SDS011;6925;47.816;13.072;2023-09-08T12:25:19;8.77;;;4.15;;
13706;SDS011;6925;47.816;13.072;2023-09-08T12:27:49;6.45;;;3.80;;
13706;SDS011;6925;47.816;13.072;2023-09-08T12:30:17;5.05;;;3.33;;
13706;SDS011;6925;47.816;13.072;2023-09-08T12:32:46;6.15;;;4.00;;
13706;SDS011;6925;47.816;13.072;2023-09-08T12:35:19;7.50;;;3.88;;
13706;SDS011;6925;47.816;13.072;2023-09-08T12:37:52;6.05;;;3.80;;
13706;SDS011;6925;47.816;13.072;2023-09-08T12:40:20;5.68;;;3.60;;
13706;SDS011;6925;47.816;13.072;2023-09-08T12:42:49;6.07;;;3.50;;
13706;SDS011;6925;47.816;13.072;2023-09-08T12:45:16;4.93;;;3.47;;
13706;SDS011;6925;47.816;13.072;2023-09-08T12:47:44;5.25;;;3.95;;
13706;SDS011;6925;47.816;13.072;2023-09-08T12:50:11;8.80;;;3.85;;
13706;SDS011;6925;47.816;13.072;2023-09-08T12:52:39;6.47;;;4.22;;
13706;SDS011;6925;47.816;13.072;2023-09-08T12:55:06;6.90;;;3.60;;
13706;SDS011;6925;47.816;13.072;2023-09-08T12:57:34;5.38;;;3.70;;
13706;SDS011;6925;47.816;13.072;2023-09-08T13:00:03;8.10;;;3.80;;
13706;SDS011;6925;47.816;13.072;2023-09-08T13:02:30;5.13;;;3.90;;
13706;SDS011;6925;47.816;13.072;2023-09-08T13:04:57;4.93;;;3.85;;
13706;SDS011;6925;47.816;13.072;2023-09-08T13:07:26;5.90;;;4.22;;
13706;SDS011;6925;47.816;13.072;2023-09-08T13:09:53;5.00;;;3.67;;
13706;SDS011;6925;47.816;13.072;2023-09-08T13:12:20;7.65;;;4.22;;
13706;SDS011;6925;47.816;13.072;2023-09-08T13:14:47;5.82;;;3.88;;
13706;SDS011;6925;47.816;13.072;2023-09-08T13:17:16;5.45;;;3.80;;
13706;SDS011;6925;47.816;13.072;2023-09-08T13:19:44;7.05;;;3.83;;
13706;SDS011;6925;47.816;13.072;2023-09-08T13:22:11;5.30;;;3.65;;
13706;SDS011;6925;47.816;13.072;2023-09-08T13:24:39;5.13;;;3.65;;
13706;SDS011;6925;47.816;13.072;2023-09-08T13:27:06;4.53;;;3.58;;
13706;SDS011;6925;47.816;13.072;2023-09-08T13:29:33;4.95;;;3.53;;
13706;SDS011;6925;47.816;13.072;2023-09-08T13:32:01;5.60;;;4.20;;
13706;SDS011;6925;47.816;13.072;2023-09-08T13:34:29;4.80;;;3.88;;
13706;SDS011;6925;47.816;13.072;2023-09-08T13:36:57;5.97;;;3.88;;
13706;SDS011;6925;47.816;13.072;2023-09-08T13:39:24;6.30;;;4.18;;
13706;SDS011;6925;47.816;13.072;2023-09-08T13:41:52;5.70;;;3.72;;
13706;SDS011;6925;47.816;13.072;2023-09-08T13:44:20;7.32;;;4.63;;
13706;SDS011;6925;47.816;13.072;2023-09-08T13:46:50;5.43;;;4.28;;
13706;SDS011;6925;47.816;13.072;2023-09-08T13:49:17;5.07;;;4.18;;
13706;SDS011;6925;47.816;13.072;2023-09-08T13:51:46;6.18;;;4.18;;
13706;SDS011;6925;47.816;13.072;2023-09-08T13:54:14;6.97;;;4.28;;
13706;SDS011;6925;47.816;13.072;2023-09-08T13:56:41;5.50;;;3.95;;
13706;SDS011;6925;47.816;13.072;2023-09-08T13:59:08;6.22;;;4.07;;
13706;SDS011;6925;47.816;13.072;2023-09-08T14:01:36;6.72;;;4.30;;
13706;SDS011;6925;47.816;13.072;2023-09-08T14:04:04;5.47;;;4.25;;
13706;SDS011;6925;47.816;13.072;2023-09-08T14:06:31;5.32;;;4.30;;
13706;SDS011;6925;47.816;13.072;2023-09-08T14:09:00;5.32;;;4.05;;
13706;SDS011;6925;47.816;13.072;2023-09-08T14:11:27;6.53;;;4.50;;
13706;SDS011;6925;47.816;13.072;2023-09-08T14:13:55;5.82;;;4.07;;
13706;SDS011;6925;47.816;13.072;2023-09-08T14:16:22;5.18;;;4.15;;
13706;SDS011;6925;47.816;13.072;2023-09-08T14:18:49;7.10;;;4.00;;
13706;SDS011;6925;47.816;13.072;2023-09-08T14:21:16;5.60;;;3.75;;
13706;SDS011;6925;47.816;13.072;2023-09-08T14:23:43;5.70;;;3.92;;
13706;SDS011;6925;47.816;13.072;2023-09-08T14:26:11;5.70;;;3.92;;
13706;SDS011;6925;47.816;13.072;2023-09-08T14:28:38;7.03;;;4.25;;
13706;SDS011;6925;47.816;13.072;2023-09-08T14:31:05;5.57;;;3.83;;
13706;SDS011;6925;47.816;13.072;2023-09-08T14:33:33;4.72;;;3.75;;
13706;SDS011;6925;47.816;13.072;2023-09-08T14:36:00;5.95;;;4.07;;
13706;SDS011;6925;47.816;13.072;2023-09-08T14:38:27;5.47;;;3.83;;
13706;SDS011;6925;47.816;13.072;2023-09-08T14:40:54;6.43;;;3.88;;
13706;SDS011;6925;47.816;13.072;2023-09-08T14:43:24;5.25;;;3.88;;
13706;SDS011;6925;47.816;13.072;2023-09-08T14:45:52;7.47;;;4.20;;
13706;SDS011;6925;47.816;13.072;2023-09-08T14:48:19;5.68;;;4.07;;
13706;SDS011;6925;47.816;13.072;2023-09-08T14:50:46;7.22;;;4.13;;
13706;SDS011;6925;47.816;13.072;2023-09-08T14:53:13;6.40;;;4.20;;
13706;SDS011;6925;47.816;13.072;2023-09-08T14:55:40;5.10;;;3.60;;
13706;SDS011;6925;47.816;13.072;2023-09-08T14:58:09;6.28;;;3.88;;
13706;SDS011;6925;47.816;13.072;2023-09-08T15:00:39;6.15;;;4.18;;
13706;SDS011;6925;47.816;13.072;2023-09-08T15:03:06;6.13;;;4.07;;
13706;SDS011;6925;47.816;13.072;2023-09-08T15:05:33;5.57;;;3.85;;
13706;SDS011;6925;47.816;13.072;2023-09-08T15:08:01;5.70;;;4.35;;
13706;SDS011;6925;47.816;13.072;2023-09-08T15:10:29;6.30;;;3.67;;
13706;SDS011;6925;47.816;13.072;2023-09-08T15:12:56;7.82;;;4.22;;
13706;SDS011;6925;47.816;13.072;2023-09-08T15:15:23;4.75;;;3.70;;
13706;SDS011;6925;47.816;13.072;2023-09-08T15:17:52;7.30;;;4.10;;
13706;SDS011;6925;47.816;13.072;2023-09-08T15:20:20;4.78;;;3.80;;
13706;SDS011;6925;47.816;13.072;2023-09-08T15:22:47;5.50;;;3.85;;
13706;SDS011;6925;47.816;13.072;2023-09-08T15:25:15;5.63;;;3.97;;
13706;SDS011;6925;47.816;13.072;2023-09-08T15:27:42;4.97;;;3.83;;
13706;SDS011;6925;47.816;13.072;2023-09-08T15:30:10;8.68;;;3.67;;
13706;SDS011;6925;47.816;13.072;2023-09-08T15:32:39;5.15;;;3.95;;
13706;SDS011;6925;47.816;13.072;2023-09-08T15:35:08;4.72;;;3.55;;
13706;SDS011;6925;47.816;13.072;2023-09-08T15:37:35;6.20;;;4.03;;
13706;SDS011;6925;47.816;13.072;2023-09-08T15:40:03;5.85;;;3.70;;
13706;SDS011;6925;47.816;13.072;2023-09-08T15:42:30;7.22;;;3.60;;
13706;SDS011;6925;47.816;13.072;2023-09-08T15:44:57;5.18;;;3.78;;
13706;SDS011;6925;47.816;13.072;2023-09-08T15:47:24;5.32;;;4.07;;
13706;SDS011;6925;47.816;13.072;2023-09-08T15:49:51;7.03;;;3.90;;
13706;SDS011;6925;47.816;13.072;2023-09-08T15:52:20;9.13;;;3.88;;
13706;SDS011;6925;47.816;13.072;2023-09-08T15:54:47;5.10;;;3.83;;
13706;SDS011;6925;47.816;13.072;2023-09-08T15:57:14;6.63;;;4.13;;
13706;SDS011;6925;47.816;13.072;2023-09-08T15:59:41;7.53;;;3.83;;
13706;SDS011;6925;47.816;13.072;2023-09-08T16:02:08;5.38;;;3.67;;
13706;SDS011;6925;47.816;13.072;2023-09-08T16:04:35;5.60;;;4.00;;
13706;SDS011;6925;47.816;13.072;2023-09-08T16:07:03;6.90;;;4.07;;
13706;SDS011;6925;47.816;13.072;2023-09-08T16:09:31;5.07;;;3.53;;
13706;SDS011;6925;47.816;13.072;2023-09-08T16:11:58;7.25;;;4.05;;
13706;SDS011;6925;47.816;13.072;2023-09-08T16:14:25;6.25;;;3.92;;
13706;SDS011;6925;47.816;13.072;2023-09-08T16:16:53;6.57;;;4.03;;
13706;SDS011;6925;47.816;13.072;2023-09-08T16:19:20;6.20;;;4.18;;
13706;SDS011;6925;47.816;13.072;2023-09-08T16:21:47;5.63;;;3.63;;